Terminal Aerodrome Forecast
Issued by NWS Portland, ME

Home | Current Version | Previous Version | Text Only | Print | Product List | Glossary On
Versions: 1 2 3 4 5 6 7 8 9 10 11 12 13 14 15 16 17 18 19 20 21 22 23 24 25 26 27
000
FTUS41 KGYX 161204 AAA
TAFPWM
TAF AMD
KPWM 161204Z 1612/1712 VRB04KT P6SM SCT030 OVC100
     FM161400 VRB03KT P6SM SCT030 BKN040 PROB30 1703/1705 3SM -SN BR
      OVC020
     FM170500 VRB03KT 2SM -SN BR OVC012=

USA.gov is the U.S. government's official web portal to all federal, state and local government web resources and services.